sensor_id;sensor_type;location;lat;lon;timestamp;pressure;altitude;pressure_sealevel;temperature;humidity
70916;BME280;58557;50.982;-3.222;2023-03-03T00:00:52;102093.02;;;5.39;45.74
70916;BME280;58557;50.982;-3.222;2023-03-03T00:03:20;102095.17;;;5.42;46.25
70916;BME280;58557;50.982;-3.222;2023-03-03T00:05:44;102095.41;;;4.96;46.50
70916;BME280;58557;50.982;-3.222;2023-03-03T00:08:09;102093.46;;;5.76;45.78
70916;BME280;58557;50.982;-3.222;2023-03-03T00:10:35;102092.44;;;5.82;44.64
70916;BME280;58557;50.982;-3.222;2023-03-03T00:13:00;102097.90;;;5.76;44.94
70916;BME280;58557;50.982;-3.222;2023-03-03T00:15:26;102101.11;;;5.28;45.06
70916;BME280;58557;50.982;-3.222;2023-03-03T00:17:52;102101.50;;;4.91;46.65
70916;BME280;58557;50.982;-3.222;2023-03-03T00:20:28;102101.06;;;5.33;46.54
70916;BME280;58557;50.982;-3.222;2023-03-03T00:22:42;102102.41;;;4.95;45.63
70916;BME280;58557;50.982;-3.222;2023-03-03T00:27:34;102101.13;;;5.94;45.24
70916;BME280;58557;50.982;-3.222;2023-03-03T00:29:58;102107.33;;;6.29;43.79
70916;BME280;58557;50.982;-3.222;2023-03-03T00:32:26;102110.68;;;6.62;43.53
70916;BME280;58557;50.982;-3.222;2023-03-03T00:34:50;102115.90;;;6.60;43.32
70916;BME280;58557;50.982;-3.222;2023-03-03T00:37:24;102114.35;;;5.70;44.17
70916;BME280;58557;50.982;-3.222;2023-03-03T00:39:41;102113.46;;;5.82;44.33
70916;BME280;58557;50.982;-3.222;2023-03-03T00:42:10;102115.00;;;6.07;43.89
70916;BME280;58557;50.982;-3.222;2023-03-03T00:44:39;102117.92;;;6.77;42.63
70916;BME280;58557;50.982;-3.222;2023-03-03T00:47:02;102117.34;;;6.01;43.26
70916;BME280;58557;50.982;-3.222;2023-03-03T00:49:25;102120.63;;;4.57;46.16
70916;BME280;58557;50.982;-3.222;2023-03-03T00:51:47;102119.04;;;4.29;47.31
70916;BME280;58557;50.982;-3.222;2023-03-03T00:54:13;102127.21;;;3.26;49.52
70916;BME280;58557;50.982;-3.222;2023-03-03T00:56:38;102124.60;;;3.67;47.79
70916;BME280;58557;50.982;-3.222;2023-03-03T00:59:04;102121.08;;;5.37;47.30
70916;BME280;58557;50.982;-3.222;2023-03-03T01:01:29;102122.99;;;3.07;49.32
70916;BME280;58557;50.982;-3.222;2023-03-03T01:03:55;102121.74;;;3.81;47.85
70916;BME280;58557;50.982;-3.222;2023-03-03T01:06:20;102121.85;;;5.07;47.03
70916;BME280;58557;50.982;-3.222;2023-03-03T01:08:45;102122.69;;;4.14;50.02
70916;BME280;58557;50.982;-3.222;2023-03-03T01:11:14;102122.67;;;4.35;49.41
70916;BME280;58557;50.982;-3.222;2023-03-03T01:13:39;102121.12;;;4.26;50.48
70916;BME280;58557;50.982;-3.222;2023-03-03T01:16:03;102120.29;;;4.43;49.81
70916;BME280;58557;50.982;-3.222;2023-03-03T01:18:28;102127.05;;;4.13;49.55
70916;BME280;58557;50.982;-3.222;2023-03-03T01:20:53;102127.53;;;3.91;49.74
70916;BME280;58557;50.982;-3.222;2023-03-03T01:23:19;102123.63;;;4.35;47.39
70916;BME280;58557;50.982;-3.222;2023-03-03T01:25:45;102126.17;;;5.65;44.89
70916;BME280;58557;50.982;-3.222;2023-03-03T01:28:10;102125.64;;;6.02;44.26
70916;BME280;58557;50.982;-3.222;2023-03-03T01:30:36;102127.05;;;5.23;43.77
70916;BME280;58557;50.982;-3.222;2023-03-03T01:33:02;102126.98;;;4.49;44.74
70916;BME280;58557;50.982;-3.222;2023-03-03T01:35:27;102132.54;;;4.95;44.88
70916;BME280;58557;50.982;-3.222;2023-03-03T01:37:53;102130.20;;;5.08;44.71
70916;BME280;58557;50.982;-3.222;2023-03-03T01:40:21;102128.38;;;4.38;45.35
70916;BME280;58557;50.982;-3.222;2023-03-03T01:42:44;102130.26;;;4.86;44.39
70916;BME280;58557;50.982;-3.222;2023-03-03T01:45:14;102128.99;;;5.26;44.28
70916;BME280;58557;50.982;-3.222;2023-03-03T01:47:35;102127.57;;;5.02;43.97
70916;BME280;58557;50.982;-3.222;2023-03-03T01:50:05;102129.75;;;4.72;44.67
70916;BME280;58557;50.982;-3.222;2023-03-03T01:52:31;102128.43;;;4.33;45.02
70916;BME280;58557;50.982;-3.222;2023-03-03T01:54:53;102127.47;;;4.67;44.23
70916;BME280;58557;50.982;-3.222;2023-03-03T01:57:21;102128.11;;;4.39;44.49
70916;BME280;58557;50.982;-3.222;2023-03-03T01:59:44;102122.85;;;4.06;44.46
70916;BME280;58557;50.982;-3.222;2023-03-03T02:02:08;102124.85;;;4.89;44.36
70916;BME280;58557;50.982;-3.222;2023-03-03T02:04:34;102123.57;;;4.45;44.47
70916;BME280;58557;50.982;-3.222;2023-03-03T02:07:00;102127.28;;;4.56;44.65
70916;BME280;58557;50.982;-3.222;2023-03-03T02:09:28;102128.44;;;4.63;45.00
70916;BME280;58557;50.982;-3.222;2023-03-03T02:11:50;102127.12;;;4.69;45.17
70916;BME280;58557;50.982;-3.222;2023-03-03T02:14:14;102129.02;;;4.39;45.45
70916;BME280;58557;50.982;-3.222;2023-03-03T02:16:40;102131.83;;;4.08;46.11
70916;BME280;58557;50.982;-3.222;2023-03-03T02:19:08;102129.20;;;4.69;45.22
70916;BME280;58557;50.982;-3.222;2023-03-03T02:21:31;102132.23;;;5.30;43.30
70916;BME280;58557;50.982;-3.222;2023-03-03T02:24:02;102129.85;;;5.52;43.70
70916;BME280;58557;50.982;-3.222;2023-03-03T02:26:24;102127.59;;;5.99;43.75
70916;BME280;58557;50.982;-3.222;2023-03-03T02:28:47;102128.99;;;5.57;44.53
70916;BME280;58557;50.982;-3.222;2023-03-03T02:31:15;102125.98;;;5.85;44.96
70916;BME280;58557;50.982;-3.222;2023-03-03T02:33:38;102127.50;;;5.46;44.80
70916;BME280;58557;50.982;-3.222;2023-03-03T02:36:04;102128.13;;;4.86;46.15
70916;BME280;58557;50.982;-3.222;2023-03-03T02:38:34;102126.03;;;4.64;46.13
70916;BME280;58557;50.982;-3.222;2023-03-03T02:41:01;102130.54;;;4.78;46.12
70916;BME280;58557;50.982;-3.222;2023-03-03T02:43:22;102132.34;;;5.01;46.21
70916;BME280;58557;50.982;-3.222;2023-03-03T02:45:45;102133.47;;;4.77;45.56
70916;BME280;58557;50.982;-3.222;2023-03-03T02:48:10;102130.40;;;5.06;46.06
70916;BME280;58557;50.982;-3.222;2023-03-03T02:50:36;102130.77;;;4.55;47.27
70916;BME280;58557;50.982;-3.222;2023-03-03T02:53:02;102130.22;;;4.49;47.58
70916;BME280;58557;50.982;-3.222;2023-03-03T02:55:27;102135.26;;;4.29;48.18
70916;BME280;58557;50.982;-3.222;2023-03-03T02:57:52;102136.23;;;4.18;48.75
70916;BME280;58557;50.982;-3.222;2023-03-03T03:00:18;102143.67;;;4.11;48.50
70916;BME280;58557;50.982;-3.222;2023-03-03T03:02:43;102141.75;;;4.35;47.52
70916;BME280;58557;50.982;-3.222;2023-03-03T03:05:08;102143.93;;;4.29;46.84
70916;BME280;58557;50.982;-3.222;2023-03-03T03:07:33;102142.57;;;4.20;47.06
70916;BME280;58557;50.982;-3.222;2023-03-03T03:09:58;102142.60;;;4.28;47.00
70916;BME280;58557;50.982;-3.222;2023-03-03T03:12:24;102143.34;;;3.78;47.60
70916;BME280;58557;50.982;-3.222;2023-03-03T03:14:49;102150.83;;;3.62;47.22
70916;BME280;58557;50.982;-3.222;2023-03-03T03:17:15;102151.86;;;3.50;48.15
70916;BME280;58557;50.982;-3.222;2023-03-03T03:19:41;102150.11;;;3.92;46.40
70916;BME280;58557;50.982;-3.222;2023-03-03T03:22:07;102152.16;;;4.09;46.35
70916;BME280;58557;50.982;-3.222;2023-03-03T03:24:31;102151.05;;;4.12;46.41
70916;BME280;58557;50.982;-3.222;2023-03-03T03:26:57;102148.28;;;5.08;45.65
70916;BME280;58557;50.982;-3.222;2023-03-03T03:29:22;102145.28;;;4.75;45.74
70916;BME280;58557;50.982;-3.222;2023-03-03T03:31:47;102152.75;;;4.30;45.04
70916;BME280;58557;50.982;-3.222;2023-03-03T03:34:12;102150.41;;;4.39;47.07
70916;BME280;58557;50.982;-3.222;2023-03-03T03:36:37;102154.57;;;4.16;47.85
70916;BME280;58557;50.982;-3.222;2023-03-03T03:39:03;102145.69;;;3.87;48.84
70916;BME280;58557;50.982;-3.222;2023-03-03T03:41:28;102141.99;;;3.95;48.51
70916;BME280;58557;50.982;-3.222;2023-03-03T03:43:54;102137.46;;;3.71;48.84
70916;BME280;58557;50.982;-3.222;2023-03-03T03:46:19;102139.53;;;3.89;49.30
70916;BME280;58557;50.982;-3.222;2023-03-03T03:48:44;102137.97;;;4.38;48.02
70916;BME280;58557;50.982;-3.222;2023-03-03T03:51:10;102138.60;;;3.81;47.18
70916;BME280;58557;50.982;-3.222;2023-03-03T03:53:35;102139.66;;;3.94;47.72
70916;BME280;58557;50.982;-3.222;2023-03-03T03:56:00;102135.10;;;3.87;48.27
70916;BME280;58557;50.982;-3.222;2023-03-03T03:58:26;102136.81;;;3.86;47.51
70916;BME280;58557;50.982;-3.222;2023-03-03T04:00:52;102134.04;;;4.12;47.29
70916;BME280;58557;50.982;-3.222;2023-03-03T04:03:17;102140.45;;;3.60;47.10
70916;BME280;58557;50.982;-3.222;2023-03-03T04:05:43;102138.22;;;3.72;47.01
70916;BME280;58557;50.982;-3.222;2023-03-03T04:08:08;102137.33;;;3.76;46.78
70916;BME280;58557;50.982;-3.222;2023-03-03T04:10:34;102139.65;;;2.89;48.02
70916;BME280;58557;50.982;-3.222;2023-03-03T04:12:59;102137.88;;;2.56;50.14
70916;BME280;58557;50.982;-3.222;2023-03-03T04:15:25;102138.05;;;4.08;46.31
70916;BME280;58557;50.982;-3.222;2023-03-03T04:17:50;102138.34;;;4.15;46.34
70916;BME280;58557;50.982;-3.222;2023-03-03T04:20:16;102137.04;;;3.52;46.91
70916;BME280;58557;50.982;-3.222;2023-03-03T04:22:41;102129.71;;;4.00;46.27
70916;BME280;58557;50.982;-3.222;2023-03-03T04:25:08;102130.18;;;4.05;46.29
70916;BME280;58557;50.982;-3.222;2023-03-03T04:27:33;102129.21;;;3.61;46.82
70916;BME280;58557;50.982;-3.222;2023-03-03T04:29:57;102128.88;;;4.14;45.66
70916;BME280;58557;50.982;-3.222;2023-03-03T04:32:23;102123.67;;;4.57;45.12
70916;BME280;58557;50.982;-3.222;2023-03-03T04:34:48;102128.46;;;3.94;45.83
70916;BME280;58557;50.982;-3.222;2023-03-03T04:37:13;102130.56;;;3.54;45.58
70916;BME280;58557;50.982;-3.222;2023-03-03T04:39:38;102128.06;;;3.52;46.84
70916;BME280;58557;50.982;-3.222;2023-03-03T04:42:04;102131.76;;;3.34;45.96
70916;BME280;58557;50.982;-3.222;2023-03-03T04:44:29;102133.32;;;3.90;46.09
70916;BME280;58557;50.982;-3.222;2023-03-03T04:46:55;102132.04;;;3.91;45.94
70916;BME280;58557;50.982;-3.222;2023-03-03T04:49:21;102136.91;;;3.58;46.13
70916;BME280;58557;50.982;-3.222;2023-03-03T04:51:46;102136.15;;;3.93;45.88
70916;BME280;58557;50.982;-3.222;2023-03-03T04:54:11;102134.96;;;3.89;46.29
70916;BME280;58557;50.982;-3.222;2023-03-03T04:56:36;102132.50;;;3.78;46.61
70916;BME280;58557;50.982;-3.222;2023-03-03T04:59:01;102130.72;;;3.92;45.79
70916;BME280;58557;50.982;-3.222;2023-03-03T05:01:27;102126.94;;;3.27;46.28
70916;BME280;58557;50.982;-3.222;2023-03-03T05:03:52;102129.22;;;3.51;47.29
70916;BME280;58557;50.982;-3.222;2023-03-03T05:06:18;102124.94;;;4.13;46.28
70916;BME280;58557;50.982;-3.222;2023-03-03T05:08:43;102125.38;;;4.18;45.63
70916;BME280;58557;50.982;-3.222;2023-03-03T05:11:08;102128.09;;;4.40;45.86
70916;BME280;58557;50.982;-3.222;2023-03-03T05:13:35;102125.05;;;3.61;45.96
70916;BME280;58557;50.982;-3.222;2023-03-03T05:16:00;102127.04;;;3.75;46.36
70916;BME280;58557;50.982;-3.222;2023-03-03T05:18:26;102130.83;;;3.13;47.44
70916;BME280;58557;50.982;-3.222;2023-03-03T05:20:52;102128.81;;;2.82;48.67
70916;BME280;58557;50.982;-3.222;2023-03-03T05:23:17;102133.52;;;3.54;49.95
70916;BME280;58557;50.982;-3.222;2023-03-03T05:25:42;102141.61;;;3.61;48.32
70916;BME280;58557;50.982;-3.222;2023-03-03T05:28:08;102138.49;;;4.18;49.41
70916;BME280;58557;50.982;-3.222;2023-03-03T05:30:33;102133.57;;;4.13;48.05
70916;BME280;58557;50.982;-3.222;2023-03-03T05:32:58;102127.98;;;4.45;48.11
70916;BME280;58557;50.982;-3.222;2023-03-03T05:35:23;102129.99;;;5.00;45.55
70916;BME280;58557;50.982;-3.222;2023-03-03T05:37:49;102130.25;;;5.16;45.86
70916;BME280;58557;50.982;-3.222;2023-03-03T05:40:15;102127.82;;;5.12;46.70
70916;BME280;58557;50.982;-3.222;2023-03-03T05:42:40;102128.42;;;5.01;46.11
70916;BME280;58557;50.982;-3.222;2023-03-03T05:45:07;102131.03;;;5.12;47.26
70916;BME280;58557;50.982;-3.222;2023-03-03T05:47:31;102131.90;;;5.09;46.69
70916;BME280;58557;50.982;-3.222;2023-03-03T05:49:57;102129.98;;;5.21;46.92
70916;BME280;58557;50.982;-3.222;2023-03-03T05:52:22;102133.11;;;4.59;47.98
70916;BME280;58557;50.982;-3.222;2023-03-03T05:54:48;102131.30;;;4.91;46.97
70916;BME280;58557;50.982;-3.222;2023-03-03T05:57:13;102133.64;;;5.08;46.96
70916;BME280;58557;50.982;-3.222;2023-03-03T05:59:39;102132.28;;;5.19;46.87
70916;BME280;58557;50.982;-3.222;2023-03-03T06:02:04;102135.79;;;4.93;45.97
70916;BME280;58557;50.982;-3.222;2023-03-03T06:04:30;102138.48;;;4.02;47.85
70916;BME280;58557;50.982;-3.222;2023-03-03T06:06:56;102143.08;;;3.90;46.82
70916;BME280;58557;50.982;-3.222;2023-03-03T06:09:22;102141.57;;;2.96;49.77
70916;BME280;58557;50.982;-3.222;2023-03-03T06:11:47;102142.36;;;3.87;50.23
70916;BME280;58557;50.982;-3.222;2023-03-03T06:14:13;102136.49;;;5.20;47.16
70916;BME280;58557;50.982;-3.222;2023-03-03T06:16:39;102133.70;;;5.32;46.49
70916;BME280;58557;50.982;-3.222;2023-03-03T06:19:04;102131.94;;;6.12;45.19
70916;BME280;58557;50.982;-3.222;2023-03-03T06:21:30;102130.65;;;5.69;45.89
70916;BME280;58557;50.982;-3.222;2023-03-03T06:23:55;102129.06;;;5.53;45.79
70916;BME280;58557;50.982;-3.222;2023-03-03T06:26:20;102131.76;;;5.24;45.32
70916;BME280;58557;50.982;-3.222;2023-03-03T06:28:46;102126.66;;;4.16;48.05
70916;BME280;58557;50.982;-3.222;2023-03-03T06:31:12;102130.75;;;3.98;50.10
70916;BME280;58557;50.982;-3.222;2023-03-03T06:33:37;102130.92;;;4.79;47.42
70916;BME280;58557;50.982;-3.222;2023-03-03T06:36:03;102131.50;;;5.35;47.32
70916;BME280;58557;50.982;-3.222;2023-03-03T06:38:28;102133.91;;;5.60;45.88
70916;BME280;58557;50.982;-3.222;2023-03-03T06:40:53;102135.38;;;5.83;46.19
70916;BME280;58557;50.982;-3.222;2023-03-03T06:43:19;102138.93;;;5.59;46.06
70916;BME280;58557;50.982;-3.222;2023-03-03T06:45:44;102137.60;;;5.92;45.76
70916;BME280;58557;50.982;-3.222;2023-03-03T06:48:10;102139.19;;;6.01;45.41
70916;BME280;58557;50.982;-3.222;2023-03-03T06:50:36;102137.92;;;6.07;45.19
70916;BME280;58557;50.982;-3.222;2023-03-03T06:53:09;102142.01;;;6.34;44.92
70916;BME280;58557;50.982;-3.222;2023-03-03T06:55:27;102144.99;;;6.56;44.62
70916;BME280;58557;50.982;-3.222;2023-03-03T06:57:52;102149.63;;;7.05;43.99
70916;BME280;58557;50.982;-3.222;2023-03-03T07:00:20;102148.03;;;6.79;43.44
70916;BME280;58557;50.982;-3.222;2023-03-03T07:02:42;102155.70;;;7.19;43.56
70916;BME280;58557;50.982;-3.222;2023-03-03T07:05:13;102160.38;;;7.18;43.06
70916;BME280;58557;50.982;-3.222;2023-03-03T07:07:33;102159.73;;;7.01;43.18
70916;BME280;58557;50.982;-3.222;2023-03-03T07:09:59;102164.10;;;6.35;44.37
70916;BME280;58557;50.982;-3.222;2023-03-03T07:12:27;102168.63;;;6.57;42.34
70916;BME280;58557;50.982;-3.222;2023-03-03T07:15:00;102167.67;;;6.98;43.48
70916;BME280;58557;50.982;-3.222;2023-03-03T07:17:18;102170.13;;;7.06;42.65
70916;BME280;58557;50.982;-3.222;2023-03-03T07:19:42;102172.40;;;6.73;43.82
70916;BME280;58557;50.982;-3.222;2023-03-03T07:22:13;102176.71;;;7.71;42.38
70916;BME280;58557;50.982;-3.222;2023-03-03T07:24:31;102179.45;;;7.51;41.67
70916;BME280;58557;50.982;-3.222;2023-03-03T07:27:05;102181.01;;;7.12;41.50
70916;BME280;58557;50.982;-3.222;2023-03-03T07:29:24;102187.57;;;7.41;42.11
70916;BME280;58557;50.982;-3.222;2023-03-03T07:31:49;102190.17;;;7.29;42.20
70916;BME280;58557;50.982;-3.222;2023-03-03T07:34:19;102192.74;;;7.42;42.35
70916;BME280;58557;50.982;-3.222;2023-03-03T07:36:40;102191.31;;;7.15;42.37
70916;BME280;58557;50.982;-3.222;2023-03-03T07:39:18;102189.82;;;7.49;41.18
70916;BME280;58557;50.982;-3.222;2023-03-03T07:41:34;102191.28;;;7.67;41.58
70916;BME280;58557;50.982;-3.222;2023-03-03T07:44:01;102190.98;;;7.07;42.49
70916;BME280;58557;50.982;-3.222;2023-03-03T07:46:25;102194.91;;;6.51;44.14
70916;BME280;58557;50.982;-3.222;2023-03-03T07:48:47;102195.20;;;6.07;44.82
70916;BME280;58557;50.982;-3.222;2023-03-03T07:51:20;102195.21;;;6.09;45.25
70916;BME280;58557;50.982;-3.222;2023-03-03T07:53:38;102196.49;;;6.41;45.17
70916;BME280;58557;50.982;-3.222;2023-03-03T07:58:36;102198.14;;;6.76;44.63
70916;BME280;58557;50.982;-3.222;2023-03-03T08:03:20;102201.79;;;6.59;46.01
70916;BME280;58557;50.982;-3.222;2023-03-03T08:05:47;102201.13;;;5.13;48.63
70916;BME280;58557;50.982;-3.222;2023-03-03T08:08:21;102200.67;;;5.30;49.48
70916;BME280;58557;50.982;-3.222;2023-03-03T08:10:43;102207.43;;;5.02;51.12
70916;BME280;58557;50.982;-3.222;2023-03-03T08:13:14;102213.84;;;3.82;52.49
70916;BME280;58557;50.982;-3.222;2023-03-03T08:15:30;102214.29;;;4.36;52.32
70916;BME280;58557;50.982;-3.222;2023-03-03T08:17:54;102215.91;;;4.87;51.72
70916;BME280;58557;50.982;-3.222;2023-03-03T08:20:38;102217.39;;;4.45;51.74
70916;BME280;58557;50.982;-3.222;2023-03-03T08:22:46;102224.40;;;4.03;54.21
70916;BME280;58557;50.982;-3.222;2023-03-03T08:25:15;102222.02;;;4.79;53.32
70916;BME280;58557;50.982;-3.222;2023-03-03T08:27:35;102223.93;;;4.40;52.91
70916;BME280;58557;50.982;-3.222;2023-03-03T08:30:01;102230.91;;;4.06;53.93
70916;BME280;58557;50.982;-3.222;2023-03-03T08:32:32;102232.50;;;4.24;54.95
70916;BME280;58557;50.982;-3.222;2023-03-03T08:34:52;102235.08;;;4.57;54.20
70916;BME280;58557;50.982;-3.222;2023-03-03T08:37:18;102236.15;;;4.19;55.36
70916;BME280;58557;50.982;-3.222;2023-03-03T08:39:43;102237.86;;;3.96;56.07
70916;BME280;58557;50.982;-3.222;2023-03-03T08:42:13;102241.02;;;4.29;56.37
70916;BME280;58557;50.982;-3.222;2023-03-03T08:44:34;102242.02;;;4.11;56.34
70916;BME280;58557;50.982;-3.222;2023-03-03T08:47:05;102242.98;;;4.20;55.52
70916;BME280;58557;50.982;-3.222;2023-03-03T08:49:25;102244.07;;;4.04;56.41
70916;BME280;58557;50.982;-3.222;2023-03-03T08:51:51;102243.70;;;3.78;57.01
70916;BME280;58557;50.982;-3.222;2023-03-03T08:54:16;102241.60;;;3.52;59.22
70916;BME280;58557;50.982;-3.222;2023-03-03T08:56:42;102242.14;;;3.49;59.44
70916;BME280;58557;50.982;-3.222;2023-03-03T08:59:07;102245.00;;;4.04;58.10
70916;BME280;58557;50.982;-3.222;2023-03-03T09:01:32;102248.03;;;4.60;57.03
70916;BME280;58557;50.982;-3.222;2023-03-03T09:03:57;102244.52;;;4.57;57.55
70916;BME280;58557;50.982;-3.222;2023-03-03T09:06:23;102243.62;;;4.60;57.56
70916;BME280;58557;50.982;-3.222;2023-03-03T09:08:48;102239.57;;;3.49;60.81
70916;BME280;58557;50.982;-3.222;2023-03-03T09:11:21;102240.92;;;3.27;61.99
70916;BME280;58557;50.982;-3.222;2023-03-03T09:13:40;102248.58;;;2.85;64.12
70916;BME280;58557;50.982;-3.222;2023-03-03T09:16:12;102250.60;;;3.33;64.85
70916;BME280;58557;50.982;-3.222;2023-03-03T09:18:35;102257.08;;;2.73;65.33
70916;BME280;58557;50.982;-3.222;2023-03-03T09:20:56;102254.45;;;3.04;65.65
70916;BME280;58557;50.982;-3.222;2023-03-03T09:23:31;102259.35;;;3.97;62.69
70916;BME280;58557;50.982;-3.222;2023-03-03T09:25:48;102263.43;;;3.85;62.26
70916;BME280;58557;50.982;-3.222;2023-03-03T09:28:22;102266.99;;;4.09;60.25
70916;BME280;58557;50.982;-3.222;2023-03-03T09:30:39;102272.94;;;3.67;60.96
70916;BME280;58557;50.982;-3.222;2023-03-03T09:33:25;102272.20;;;3.17;61.74
70916;BME280;58557;50.982;-3.222;2023-03-03T09:35:36;102270.87;;;3.56;60.67
70916;BME280;58557;50.982;-3.222;2023-03-03T09:37:54;102274.13;;;3.77;61.62
70916;BME280;58557;50.982;-3.222;2023-03-03T09:42:55;102276.54;;;4.02;60.33
70916;BME280;58557;50.982;-3.222;2023-03-03T09:47:47;102285.25;;;3.54;59.48
70916;BME280;58557;50.982;-3.222;2023-03-03T09:50:11;102284.61;;;3.55;59.94
70916;BME280;58557;50.982;-3.222;2023-03-03T09:52:39;102291.97;;;4.00;59.38
70916;BME280;58557;50.982;-3.222;2023-03-03T09:54:58;102292.80;;;4.16;59.41
70916;BME280;58557;50.982;-3.222;2023-03-03T09:57:22;102291.89;;;3.11;60.31
70916;BME280;58557;50.982;-3.222;2023-03-03T10:04:44;102298.84;;;4.03;58.97
70916;BME280;58557;50.982;-3.222;2023-03-03T10:09:34;102299.49;;;4.36;57.71
70916;BME280;58557;50.982;-3.222;2023-03-03T10:11:56;102300.52;;;4.75;56.24
70916;BME280;58557;50.982;-3.222;2023-03-03T10:14:27;102302.03;;;4.95;56.16
70916;BME280;58557;50.982;-3.222;2023-03-03T10:16:59;102304.20;;;5.60;53.97
70916;BME280;58557;50.982;-3.222;2023-03-03T10:19:14;102303.25;;;3.81;56.90
70916;BME280;58557;50.982;-3.222;2023-03-03T10:21:37;102305.27;;;3.48;58.56
70916;BME280;58557;50.982;-3.222;2023-03-03T10:24:01;102305.14;;;4.20;57.82
70916;BME280;58557;50.982;-3.222;2023-03-03T10:26:33;102304.39;;;4.78;57.01
70916;BME280;58557;50.982;-3.222;2023-03-03T10:28:58;102301.49;;;4.43;56.39
70916;BME280;58557;50.982;-3.222;2023-03-03T10:31:20;102302.55;;;4.33;55.77
70916;BME280;58557;50.982;-3.222;2023-03-03T10:33:44;102299.06;;;4.03;57.62
70916;BME280;58557;50.982;-3.222;2023-03-03T10:35:39;67491.37;;;23.37;79.61
70916;BME280;58557;50.982;-3.222;2023-03-03T10:40:25;102301.34;;;4.21;55.35
70916;BME280;58557;50.982;-3.222;2023-03-03T10:42:57;102298.58;;;4.24;57.73
70916;BME280;58557;50.982;-3.222;2023-03-03T10:45:23;102299.53;;;4.50;54.70
70916;BME280;58557;50.982;-3.222;2023-03-03T10:47:49;102298.60;;;4.55;55.27
70916;BME280;58557;50.982;-3.222;2023-03-03T10:50:11;102304.57;;;4.39;54.40
70916;BME280;58557;50.982;-3.222;2023-03-03T10:52:32;102298.75;;;3.80;55.14
70916;BME280;58557;50.982;-3.222;2023-03-03T10:55:05;102302.62;;;3.77;56.96
70916;BME280;58557;50.982;-3.222;2023-03-03T10:57:23;102308.91;;;4.80;55.13
70916;BME280;58557;50.982;-3.222;2023-03-03T10:59:55;102309.10;;;4.30;55.28
70916;BME280;58557;50.982;-3.222;2023-03-03T11:02:14;102311.52;;;4.65;54.40
70916;BME280;58557;50.982;-3.222;2023-03-03T11:04:49;102310.31;;;4.17;55.18
70916;BME280;58557;50.982;-3.222;2023-03-03T11:07:02;102311.55;;;4.27;54.32
70916;BME280;58557;50.982;-3.222;2023-03-03T11:09:35;102308.35;;;4.66;54.05
70916;BME280;58557;50.982;-3.222;2023-03-03T11:11:58;102310.97;;;4.98;53.52
70916;BME280;58557;50.982;-3.222;2023-03-03T11:14:20;102313.22;;;4.40;54.34
70916;BME280;58557;50.982;-3.222;2023-03-03T11:16:53;102310.30;;;3.45;55.44
70916;BME280;58557;50.982;-3.222;2023-03-03T11:19:13;102313.21;;;3.60;56.54
70916;BME280;58557;50.982;-3.222;2023-03-03T11:21:34;102316.77;;;3.58;56.23
70916;BME280;58557;50.982;-3.222;2023-03-03T11:24:10;102315.91;;;4.24;55.33
70916;BME280;58557;50.982;-3.222;2023-03-03T11:26:31;102317.70;;;4.65;53.39
70916;BME280;58557;50.982;-3.222;2023-03-03T11:28:57;102316.17;;;4.38;53.56
70916;BME280;58557;50.982;-3.222;2023-03-03T11:31:19;102320.60;;;4.79;53.55
70916;BME280;58557;50.982;-3.222;2023-03-03T11:33:42;102318.40;;;4.75;53.14
70916;BME280;58557;50.982;-3.222;2023-03-03T11:36:11;102323.87;;;4.73;52.99
70916;BME280;58557;50.982;-3.222;2023-03-03T11:38:37;102322.72;;;4.06;54.68
70916;BME280;58557;50.982;-3.222;2023-03-03T11:40:56;102328.01;;;3.91;55.50
70916;BME280;58557;50.982;-3.222;2023-03-03T11:43:21;102323.56;;;3.65;56.01
70916;BME280;58557;50.982;-3.222;2023-03-03T11:45:46;102322.22;;;4.23;54.99
70916;BME280;58557;50.982;-3.222;2023-03-03T11:48:17;102320.91;;;4.96;52.43
70916;BME280;58557;50.982;-3.222;2023-03-03T11:50:38;102324.89;;;5.08;51.49
70916;BME280;58557;50.982;-3.222;2023-03-03T11:53:08;102319.60;;;5.27;51.12
70916;BME280;58557;50.982;-3.222;2023-03-03T11:55:28;102319.35;;;4.68;52.43
70916;BME280;58557;50.982;-3.222;2023-03-03T11:57:51;102323.97;;;4.97;52.22
70916;BME280;58557;50.982;-3.222;2023-03-03T12:00:21;102321.97;;;5.53;50.25
70916;BME280;58557;50.982;-3.222;2023-03-03T12:02:55;102324.16;;;5.43;50.52
70916;BME280;58557;50.982;-3.222;2023-03-03T12:05:09;102320.51;;;5.36;50.69
70916;BME280;58557;50.982;-3.222;2023-03-03T12:07:36;102322.40;;;5.42;50.27
70916;BME280;58557;50.982;-3.222;2023-03-03T12:12:23;102317.84;;;5.23;50.03
70916;BME280;58557;50.982;-3.222;2023-03-03T12:14:55;102318.32;;;5.48;49.45
70916;BME280;58557;50.982;-3.222;2023-03-03T12:17:17;102315.00;;;5.80;49.54
70916;BME280;58557;50.982;-3.222;2023-03-03T12:19:43;102316.68;;;5.85;49.60
70916;BME280;58557;50.982;-3.222;2023-03-03T12:22:07;102314.63;;;5.36;49.66
70916;BME280;58557;50.982;-3.222;2023-03-03T12:24:43;102313.58;;;5.95;48.62
70916;BME280;58557;50.982;-3.222;2023-03-03T12:26:54;102311.01;;;4.62;51.81
70916;BME280;58557;50.982;-3.222;2023-03-03T12:29:25;102311.07;;;4.66;51.62
70916;BME280;58557;50.982;-3.222;2023-03-03T12:31:48;102309.96;;;5.01;51.65
70916;BME280;58557;50.982;-3.222;2023-03-03T12:34:14;102309.11;;;5.20;50.59
70916;BME280;58557;50.982;-3.222;2023-03-03T12:36:46;102306.23;;;4.79;50.93
70916;BME280;58557;50.982;-3.222;2023-03-03T12:39:02;102308.46;;;5.41;51.08
70916;BME280;58557;50.982;-3.222;2023-03-03T12:41:28;102306.68;;;5.20;51.73
70916;BME280;58557;50.982;-3.222;2023-03-03T12:43:56;102303.48;;;5.47;49.06
70916;BME280;58557;50.982;-3.222;2023-03-03T12:46:20;102302.65;;;5.61;49.56
70916;BME280;58557;50.982;-3.222;2023-03-03T12:48:41;102306.59;;;5.67;48.64
70916;BME280;58557;50.982;-3.222;2023-03-03T12:51:14;102293.18;;;5.98;48.29
70916;BME280;58557;50.982;-3.222;2023-03-03T12:55:57;102299.29;;;5.12;48.88
70916;BME280;58557;50.982;-3.222;2023-03-03T12:58:32;102299.14;;;5.30;49.53
70916;BME280;58557;50.982;-3.222;2023-03-03T13:00:50;102300.67;;;5.54;48.85
70916;BME280;58557;50.982;-3.222;2023-03-03T13:03:18;102298.14;;;4.49;52.14
70916;BME280;58557;50.982;-3.222;2023-03-03T13:05:46;102299.82;;;5.24;51.16